Friday, January 19, 2018, 2:40 AM EST
Back to Local

KTAN, Taunton Municipal Airport

Location: East Taunton, MA, United States Lat: 41.883
Local Time: 2:40 AM EST ( 7:40 GMT) Lon: -71.017
Time Zone: US/Eastern Elev: 42 ft

Show me the last for .
Show Coded

Time T Td Feel RH Dir Speed Gust Alt SLP Vis Weather Sky Remarks
2018-01-19 01:52 22 14 14 71 290° 6 - 29.95 29.95 10 CLR None
2018-01-19 00:52 23 15 16 71 280° 6 - 29.93 29.93 10 CLR 6-hr Min Temp (1am): 23.0°F
6-hr Max Temp (1am): 28.0°F
2018-01-18 23:52 24 15 17 68 280° 6 - 29.95 29.95 10 CLR 24-hr Min Temp (12am): 21.9°F
24-hr Max Temp (12am): 35.1°F
2018-01-18 22:52 25 16 18 68 270° 6 - 29.95 29.95 10 CLR None
2018-01-18 21:52 26 16 21 65 Variable 5 - 29.94 29.94 10 CLR None
2018-01-18 20:52 26 16 18 65 300° 7 - 29.94 29.93 10 CLR None
2018-01-18 19:52 27 16 20 62 310° 6 - 29.92 29.92 10 CLR None
2018-01-18 18:52 28 16 22 60 320° 6 - 29.91 29.91 10 CLR 6-hr Min Temp (7pm): 28.0°F
6-hr Max Temp (7pm): 35.1°F
2018-01-18 17:52 29 17 23 60 340° 6 - 29.89 29.89 10 CLR None
2018-01-18 16:52 30 16 22 55 340° 8 - 29.88 29.88 10 CLR None
2018-01-18 15:52 33 16 28 48 320° 6 - 29.84 29.84 10 CLR None
2018-01-18 14:52 35 15 29 43 360° 8 - 29.83 29.83 10 CLR None
2018-01-18 13:52 34 16 28 47 Variable 7 - 29.84 29.84 10 CLR None
2018-01-18 12:52 34 16 29 47 Variable 6 - 29.85 29.85 10 CLR 6-hr Min Temp (1pm): 21.9°F
6-hr Max Temp (1pm): 34.0°F
2018-01-18 11:52 32 18 25 55 310° 8 - 29.89 29.89 10 CLR None
2018-01-18 10:52 28 16 21 60 300° 7 - 29.94 29.94 10 CLR None
2018-01-18 09:52 26 15 21 62 320° 5 - 29.97 29.96 10 CLR None
2018-01-18 08:52 24 15 16 68 310° 7 - 29.97 29.97 10 CLR None
2018-01-18 07:52 22 16 14 77 320° 6 - 29.95 29.95 10 CLR None
2018-01-18 06:52 23 19 15 84 330° 7 - 29.96 29.96 10 CLR 24-hr Precip Total (7am): 0.17"
6-hr Min Temp (7am): 23.0°F
6-hr Max Temp (7am): 32.0°F
2018-01-18 05:52 24 20 - 83 - Calm - 29.97 29.97 10 CLR None
2018-01-18 04:52 26 22 19 84 320° 6 - 29.98 29.98 10 FEW013 None
2018-01-18 03:52 27 23 22 84 320° 5 - 29.98 29.98 10 FEW017 None
2018-01-18 03:48 28 23 23 79 330° 5 - 29.98 - 10 SCT017 None
2018-01-18 02:52 30 25 23 81 320° 7 - 29.99 29.99 10 OVC015 None

Support USWX by starting your Amazon purchase here.